sensor_id;sensor_type;location;lat;lon;timestamp;P1;durP1;ratioP1;P2;durP2;ratioP2
8683;SDS011;4379;59.744;18.206;2023-03-23T00:01:04;7.90;;;3.47;;
8683;SDS011;4379;59.744;18.206;2023-03-23T00:03:32;6.87;;;2.90;;
8683;SDS011;4379;59.744;18.206;2023-03-23T00:05:58;7.80;;;2.90;;
8683;SDS011;4379;59.744;18.206;2023-03-23T00:08:33;12.80;;;3.87;;
8683;SDS011;4379;59.744;18.206;2023-03-23T00:11:03;10.80;;;3.43;;
8683;SDS011;4379;59.744;18.206;2023-03-23T00:13:30;6.00;;;2.60;;
8683;SDS011;4379;59.744;18.206;2023-03-23T00:15:56;7.77;;;3.37;;
8683;SDS011;4379;59.744;18.206;2023-03-23T00:18:22;11.27;;;3.70;;
8683;SDS011;4379;59.744;18.206;2023-03-23T00:20:50;7.83;;;3.17;;
8683;SDS011;4379;59.744;18.206;2023-03-23T00:23:21;10.97;;;3.33;;
8683;SDS011;4379;59.744;18.206;2023-03-23T00:25:51;9.17;;;3.47;;
8683;SDS011;4379;59.744;18.206;2023-03-23T00:28:19;9.40;;;3.40;;
8683;SDS011;4379;59.744;18.206;2023-03-23T00:30:54;11.17;;;3.93;;
8683;SDS011;4379;59.744;18.206;2023-03-23T00:33:34;14.03;;;3.53;;
8683;SDS011;4379;59.744;18.206;2023-03-23T00:36:09;9.83;;;3.30;;
8683;SDS011;4379;59.744;18.206;2023-03-23T00:38:38;15.60;;;4.07;;
8683;SDS011;4379;59.744;18.206;2023-03-23T00:41:05;11.00;;;3.63;;
8683;SDS011;4379;59.744;18.206;2023-03-23T00:43:32;11.77;;;3.60;;
8683;SDS011;4379;59.744;18.206;2023-03-23T00:46:01;10.73;;;4.03;;
8683;SDS011;4379;59.744;18.206;2023-03-23T00:48:37;10.57;;;3.87;;
8683;SDS011;4379;59.744;18.206;2023-03-23T00:51:10;11.60;;;3.50;;
8683;SDS011;4379;59.744;18.206;2023-03-23T00:53:37;8.23;;;3.60;;
8683;SDS011;4379;59.744;18.206;2023-03-23T00:56:04;13.03;;;3.77;;
8683;SDS011;4379;59.744;18.206;2023-03-23T00:58:31;13.83;;;3.70;;
8683;SDS011;4379;59.744;18.206;2023-03-23T01:00:58;14.67;;;4.00;;
8683;SDS011;4379;59.744;18.206;2023-03-23T01:03:24;11.17;;;3.83;;
8683;SDS011;4379;59.744;18.206;2023-03-23T01:05:52;11.30;;;3.77;;
8683;SDS011;4379;59.744;18.206;2023-03-23T01:08:18;12.43;;;3.60;;
8683;SDS011;4379;59.744;18.206;2023-03-23T01:10:45;10.37;;;4.13;;
8683;SDS011;4379;59.744;18.206;2023-03-23T01:13:11;10.30;;;3.37;;
8683;SDS011;4379;59.744;18.206;2023-03-23T01:15:38;9.57;;;3.50;;
8683;SDS011;4379;59.744;18.206;2023-03-23T01:18:05;11.37;;;3.93;;
8683;SDS011;4379;59.744;18.206;2023-03-23T01:20:32;11.07;;;3.53;;
8683;SDS011;4379;59.744;18.206;2023-03-23T01:22:58;14.80;;;3.77;;
8683;SDS011;4379;59.744;18.206;2023-03-23T01:25:29;13.40;;;4.63;;
8683;SDS011;4379;59.744;18.206;2023-03-23T01:27:57;11.93;;;3.90;;
8683;SDS011;4379;59.744;18.206;2023-03-23T01:30:24;16.87;;;5.03;;
8683;SDS011;4379;59.744;18.206;2023-03-23T01:32:51;15.80;;;4.40;;
8683;SDS011;4379;59.744;18.206;2023-03-23T01:35:18;11.27;;;4.30;;
8683;SDS011;4379;59.744;18.206;2023-03-23T01:37:44;9.27;;;3.67;;
8683;SDS011;4379;59.744;18.206;2023-03-23T01:40:11;12.70;;;3.70;;
8683;SDS011;4379;59.744;18.206;2023-03-23T01:42:37;18.00;;;4.50;;
8683;SDS011;4379;59.744;18.206;2023-03-23T01:48:07;16.17;;;4.20;;
8683;SDS011;4379;59.744;18.206;2023-03-23T01:53:30;17.77;;;4.60;;
8683;SDS011;4379;59.744;18.206;2023-03-23T01:56:03;15.57;;;4.50;;
8683;SDS011;4379;59.744;18.206;2023-03-23T01:58:30;14.80;;;4.10;;
8683;SDS011;4379;59.744;18.206;2023-03-23T02:01:00;22.70;;;4.87;;
8683;SDS011;4379;59.744;18.206;2023-03-23T02:03:29;11.60;;;3.93;;
8683;SDS011;4379;59.744;18.206;2023-03-23T02:05:57;15.67;;;4.37;;
8683;SDS011;4379;59.744;18.206;2023-03-23T02:08:26;12.90;;;4.13;;
8683;SDS011;4379;59.744;18.206;2023-03-23T02:10:54;14.57;;;4.20;;
8683;SDS011;4379;59.744;18.206;2023-03-23T02:13:20;16.50;;;4.50;;
8683;SDS011;4379;59.744;18.206;2023-03-23T02:21:26;16.40;;;4.80;;
8683;SDS011;4379;59.744;18.206;2023-03-23T02:26:58;17.93;;;4.87;;
8683;SDS011;4379;59.744;18.206;2023-03-23T02:34:49;16.40;;;4.73;;
8683;SDS011;4379;59.744;18.206;2023-03-23T02:37:52;18.37;;;4.50;;
8683;SDS011;4379;59.744;18.206;2023-03-23T02:40:33;13.87;;;4.47;;
8683;SDS011;4379;59.744;18.206;2023-03-23T02:43:13;21.17;;;4.47;;
8683;SDS011;4379;59.744;18.206;2023-03-23T02:45:42;15.03;;;4.27;;
8683;SDS011;4379;59.744;18.206;2023-03-23T02:48:10;20.97;;;4.50;;
8683;SDS011;4379;59.744;18.206;2023-03-23T02:50:42;15.07;;;4.17;;
8683;SDS011;4379;59.744;18.206;2023-03-23T02:53:11;13.73;;;4.27;;
8683;SDS011;4379;59.744;18.206;2023-03-23T02:55:41;15.57;;;4.13;;
8683;SDS011;4379;59.744;18.206;2023-03-23T02:58:10;18.40;;;4.40;;
8683;SDS011;4379;59.744;18.206;2023-03-23T03:00:37;20.67;;;5.10;;
8683;SDS011;4379;59.744;18.206;2023-03-23T03:03:04;12.77;;;4.47;;
8683;SDS011;4379;59.744;18.206;2023-03-23T03:05:38;19.23;;;4.87;;
8683;SDS011;4379;59.744;18.206;2023-03-23T03:08:18;18.23;;;4.90;;
8683;SDS011;4379;59.744;18.206;2023-03-23T03:16:27;17.53;;;4.57;;
8683;SDS011;4379;59.744;18.206;2023-03-23T03:19:12;15.00;;;4.33;;
8683;SDS011;4379;59.744;18.206;2023-03-23T03:21:50;15.40;;;4.20;;
8683;SDS011;4379;59.744;18.206;2023-03-23T03:24:20;12.63;;;3.83;;
8683;SDS011;4379;59.744;18.206;2023-03-23T03:26:48;15.83;;;4.60;;
8683;SDS011;4379;59.744;18.206;2023-03-23T03:29:17;20.33;;;4.43;;
8683;SDS011;4379;59.744;18.206;2023-03-23T03:31:49;16.27;;;4.20;;
8683;SDS011;4379;59.744;18.206;2023-03-23T03:34:16;14.93;;;4.50;;
8683;SDS011;4379;59.744;18.206;2023-03-23T03:36:43;18.07;;;4.80;;
8683;SDS011;4379;59.744;18.206;2023-03-23T03:39:11;17.53;;;4.47;;
8683;SDS011;4379;59.744;18.206;2023-03-23T03:41:40;18.17;;;4.47;;
8683;SDS011;4379;59.744;18.206;2023-03-23T03:44:07;15.57;;;4.57;;
8683;SDS011;4379;59.744;18.206;2023-03-23T03:46:34;14.40;;;4.10;;
8683;SDS011;4379;59.744;18.206;2023-03-23T03:49:01;13.40;;;4.00;;
8683;SDS011;4379;59.744;18.206;2023-03-23T03:51:29;18.50;;;4.80;;
8683;SDS011;4379;59.744;18.206;2023-03-23T03:53:56;12.47;;;4.27;;
8683;SDS011;4379;59.744;18.206;2023-03-23T03:56:23;16.10;;;3.80;;
8683;SDS011;4379;59.744;18.206;2023-03-23T03:58:49;14.87;;;4.57;;
8683;SDS011;4379;59.744;18.206;2023-03-23T04:01:16;15.30;;;4.10;;
8683;SDS011;4379;59.744;18.206;2023-03-23T04:03:44;17.20;;;4.30;;
8683;SDS011;4379;59.744;18.206;2023-03-23T04:06:10;20.93;;;4.20;;
8683;SDS011;4379;59.744;18.206;2023-03-23T04:08:39;15.97;;;4.00;;
8683;SDS011;4379;59.744;18.206;2023-03-23T04:11:07;12.80;;;3.63;;
8683;SDS011;4379;59.744;18.206;2023-03-23T04:13:34;14.53;;;4.13;;
8683;SDS011;4379;59.744;18.206;2023-03-23T04:16:00;14.00;;;4.60;;
8683;SDS011;4379;59.744;18.206;2023-03-23T04:18:26;17.00;;;4.60;;
8683;SDS011;4379;59.744;18.206;2023-03-23T04:20:52;17.27;;;4.47;;
8683;SDS011;4379;59.744;18.206;2023-03-23T04:23:18;16.73;;;4.30;;
8683;SDS011;4379;59.744;18.206;2023-03-23T04:25:47;14.10;;;4.57;;
8683;SDS011;4379;59.744;18.206;2023-03-23T04:28:18;16.33;;;4.23;;
8683;SDS011;4379;59.744;18.206;2023-03-23T04:30:49;13.17;;;4.20;;
8683;SDS011;4379;59.744;18.206;2023-03-23T04:33:23;11.47;;;4.20;;
8683;SDS011;4379;59.744;18.206;2023-03-23T04:35:52;18.80;;;4.43;;
8683;SDS011;4379;59.744;18.206;2023-03-23T04:38:18;16.97;;;4.60;;
8683;SDS011;4379;59.744;18.206;2023-03-23T04:40:46;18.27;;;4.33;;
8683;SDS011;4379;59.744;18.206;2023-03-23T04:43:17;16.43;;;4.53;;
8683;SDS011;4379;59.744;18.206;2023-03-23T04:45:46;15.07;;;5.10;;
8683;SDS011;4379;59.744;18.206;2023-03-23T04:48:24;16.23;;;4.43;;
8683;SDS011;4379;59.744;18.206;2023-03-23T04:50:51;13.60;;;4.10;;
8683;SDS011;4379;59.744;18.206;2023-03-23T04:53:18;14.67;;;3.77;;
8683;SDS011;4379;59.744;18.206;2023-03-23T04:55:44;13.10;;;4.17;;
8683;SDS011;4379;59.744;18.206;2023-03-23T04:58:12;13.57;;;3.87;;
8683;SDS011;4379;59.744;18.206;2023-03-23T05:00:40;13.67;;;3.83;;
8683;SDS011;4379;59.744;18.206;2023-03-23T05:03:11;16.17;;;4.40;;
8683;SDS011;4379;59.744;18.206;2023-03-23T05:05:42;17.80;;;5.20;;
8683;SDS011;4379;59.744;18.206;2023-03-23T05:08:12;15.43;;;4.27;;
8683;SDS011;4379;59.744;18.206;2023-03-23T05:10:39;18.30;;;4.40;;
8683;SDS011;4379;59.744;18.206;2023-03-23T05:13:06;23.40;;;5.37;;
8683;SDS011;4379;59.744;18.206;2023-03-23T05:15:32;15.20;;;4.27;;
8683;SDS011;4379;59.744;18.206;2023-03-23T05:17:58;19.57;;;5.40;;
8683;SDS011;4379;59.744;18.206;2023-03-23T05:20:24;16.27;;;4.33;;
8683;SDS011;4379;59.744;18.206;2023-03-23T05:22:50;14.83;;;4.33;;
8683;SDS011;4379;59.744;18.206;2023-03-23T05:25:17;18.73;;;4.33;;
8683;SDS011;4379;59.744;18.206;2023-03-23T05:27:46;16.87;;;4.40;;
8683;SDS011;4379;59.744;18.206;2023-03-23T05:30:18;13.27;;;4.30;;
8683;SDS011;4379;59.744;18.206;2023-03-23T05:32:45;13.43;;;4.40;;
8683;SDS011;4379;59.744;18.206;2023-03-23T05:35:15;15.10;;;4.30;;
8683;SDS011;4379;59.744;18.206;2023-03-23T05:37:43;15.67;;;4.50;;
8683;SDS011;4379;59.744;18.206;2023-03-23T05:40:10;17.27;;;4.77;;
8683;SDS011;4379;59.744;18.206;2023-03-23T05:42:37;17.63;;;4.90;;
8683;SDS011;4379;59.744;18.206;2023-03-23T05:45:07;16.97;;;4.47;;
8683;SDS011;4379;59.744;18.206;2023-03-23T05:47:36;15.83;;;4.13;;
8683;SDS011;4379;59.744;18.206;2023-03-23T05:50:03;15.03;;;4.50;;
8683;SDS011;4379;59.744;18.206;2023-03-23T05:52:31;17.00;;;4.53;;
8683;SDS011;4379;59.744;18.206;2023-03-23T05:55:01;19.27;;;4.70;;
8683;SDS011;4379;59.744;18.206;2023-03-23T05:57:29;12.63;;;4.60;;
8683;SDS011;4379;59.744;18.206;2023-03-23T05:59:55;13.87;;;4.13;;
8683;SDS011;4379;59.744;18.206;2023-03-23T06:02:23;13.40;;;4.87;;
8683;SDS011;4379;59.744;18.206;2023-03-23T06:04:50;13.67;;;4.33;;
8683;SDS011;4379;59.744;18.206;2023-03-23T06:07:23;14.27;;;4.30;;
8683;SDS011;4379;59.744;18.206;2023-03-23T06:09:50;15.83;;;4.73;;
8683;SDS011;4379;59.744;18.206;2023-03-23T06:12:16;15.70;;;4.53;;
8683;SDS011;4379;59.744;18.206;2023-03-23T06:14:46;19.23;;;4.97;;
8683;SDS011;4379;59.744;18.206;2023-03-23T06:17:13;13.00;;;4.47;;
8683;SDS011;4379;59.744;18.206;2023-03-23T06:19:42;10.57;;;3.90;;
8683;SDS011;4379;59.744;18.206;2023-03-23T06:22:10;11.90;;;3.87;;
8683;SDS011;4379;59.744;18.206;2023-03-23T06:24:37;21.70;;;5.23;;
8683;SDS011;4379;59.744;18.206;2023-03-23T06:27:03;12.17;;;4.27;;
8683;SDS011;4379;59.744;18.206;2023-03-23T06:29:29;11.80;;;4.40;;
8683;SDS011;4379;59.744;18.206;2023-03-23T06:31:58;13.77;;;4.60;;
8683;SDS011;4379;59.744;18.206;2023-03-23T06:34:26;10.90;;;4.33;;
8683;SDS011;4379;59.744;18.206;2023-03-23T06:36:52;11.90;;;4.33;;
8683;SDS011;4379;59.744;18.206;2023-03-23T06:39:18;13.63;;;4.07;;
8683;SDS011;4379;59.744;18.206;2023-03-23T06:41:45;15.80;;;4.50;;
8683;SDS011;4379;59.744;18.206;2023-03-23T06:44:11;15.63;;;4.33;;
8683;SDS011;4379;59.744;18.206;2023-03-23T06:46:39;13.33;;;4.30;;
8683;SDS011;4379;59.744;18.206;2023-03-23T06:49:06;12.10;;;4.47;;
8683;SDS011;4379;59.744;18.206;2023-03-23T06:51:33;17.13;;;4.30;;
8683;SDS011;4379;59.744;18.206;2023-03-23T06:53:59;13.77;;;4.40;;
8683;SDS011;4379;59.744;18.206;2023-03-23T06:56:26;16.47;;;4.63;;
8683;SDS011;4379;59.744;18.206;2023-03-23T06:58:52;12.53;;;4.03;;
8683;SDS011;4379;59.744;18.206;2023-03-23T07:01:21;12.53;;;4.00;;
8683;SDS011;4379;59.744;18.206;2023-03-23T07:03:47;10.67;;;3.90;;
8683;SDS011;4379;59.744;18.206;2023-03-23T07:06:14;14.00;;;4.67;;
8683;SDS011;4379;59.744;18.206;2023-03-23T07:08:41;12.63;;;4.70;;
8683;SDS011;4379;59.744;18.206;2023-03-23T07:11:07;11.17;;;4.13;;
8683;SDS011;4379;59.744;18.206;2023-03-23T07:13:35;13.53;;;4.57;;
8683;SDS011;4379;59.744;18.206;2023-03-23T07:16:03;13.33;;;4.27;;
8683;SDS011;4379;59.744;18.206;2023-03-23T07:18:31;14.97;;;4.37;;
8683;SDS011;4379;59.744;18.206;2023-03-23T07:20:57;15.07;;;4.47;;
8683;SDS011;4379;59.744;18.206;2023-03-23T07:23:24;12.33;;;4.73;;
8683;SDS011;4379;59.744;18.206;2023-03-23T07:25:50;13.73;;;4.47;;
8683;SDS011;4379;59.744;18.206;2023-03-23T07:28:17;11.40;;;4.00;;
8683;SDS011;4379;59.744;18.206;2023-03-23T07:30:43;10.73;;;4.10;;
8683;SDS011;4379;59.744;18.206;2023-03-23T07:33:10;12.07;;;4.07;;
8683;SDS011;4379;59.744;18.206;2023-03-23T07:35:38;11.93;;;4.07;;
8683;SDS011;4379;59.744;18.206;2023-03-23T07:38:05;11.20;;;3.90;;
8683;SDS011;4379;59.744;18.206;2023-03-23T07:40:32;9.60;;;3.57;;
8683;SDS011;4379;59.744;18.206;2023-03-23T07:42:59;11.53;;;4.20;;
8683;SDS011;4379;59.744;18.206;2023-03-23T07:45:26;9.43;;;4.10;;
8683;SDS011;4379;59.744;18.206;2023-03-23T07:47:53;13.88;;;4.50;;
8683;SDS011;4379;59.744;18.206;2023-03-23T07:50:19;9.15;;;3.78;;
8683;SDS011;4379;59.744;18.206;2023-03-23T07:52:50;13.33;;;4.07;;
8683;SDS011;4379;59.744;18.206;2023-03-23T07:55:18;10.57;;;4.20;;
8683;SDS011;4379;59.744;18.206;2023-03-23T07:57:44;11.13;;;4.10;;
8683;SDS011;4379;59.744;18.206;2023-03-23T08:00:12;11.77;;;4.47;;
8683;SDS011;4379;59.744;18.206;2023-03-23T08:02:48;10.57;;;4.33;;
8683;SDS011;4379;59.744;18.206;2023-03-23T08:05:18;10.53;;;4.03;;
8683;SDS011;4379;59.744;18.206;2023-03-23T08:07:46;14.17;;;4.50;;
8683;SDS011;4379;59.744;18.206;2023-03-23T08:10:12;8.97;;;4.30;;
8683;SDS011;4379;59.744;18.206;2023-03-23T08:12:40;10.43;;;3.87;;
8683;SDS011;4379;59.744;18.206;2023-03-23T08:15:08;10.67;;;4.43;;
8683;SDS011;4379;59.744;18.206;2023-03-23T08:17:42;11.93;;;4.60;;
8683;SDS011;4379;59.744;18.206;2023-03-23T08:20:10;13.40;;;4.07;;
8683;SDS011;4379;59.744;18.206;2023-03-23T08:22:42;10.23;;;4.20;;
8683;SDS011;4379;59.744;18.206;2023-03-23T08:25:11;13.87;;;4.43;;
8683;SDS011;4379;59.744;18.206;2023-03-23T08:27:39;13.87;;;5.00;;
8683;SDS011;4379;59.744;18.206;2023-03-23T08:30:13;11.30;;;3.80;;
8683;SDS011;4379;59.744;18.206;2023-03-23T08:32:41;16.77;;;4.17;;
8683;SDS011;4379;59.744;18.206;2023-03-23T08:35:09;11.43;;;3.90;;
8683;SDS011;4379;59.744;18.206;2023-03-23T08:37:36;10.90;;;4.80;;
8683;SDS011;4379;59.744;18.206;2023-03-23T08:40:03;14.70;;;4.37;;
8683;SDS011;4379;59.744;18.206;2023-03-23T08:42:40;11.17;;;4.47;;
8683;SDS011;4379;59.744;18.206;2023-03-23T08:45:09;14.43;;;4.63;;
8683;SDS011;4379;59.744;18.206;2023-03-23T08:47:37;13.00;;;4.70;;
8683;SDS011;4379;59.744;18.206;2023-03-23T08:50:04;8.95;;;4.18;;
8683;SDS011;4379;59.744;18.206;2023-03-23T08:52:31;9.93;;;4.07;;
8683;SDS011;4379;59.744;18.206;2023-03-23T08:54:57;10.60;;;4.10;;
8683;SDS011;4379;59.744;18.206;2023-03-23T08:57:25;10.07;;;3.92;;
8683;SDS011;4379;59.744;18.206;2023-03-23T08:59:51;9.32;;;3.50;;
8683;SDS011;4379;59.744;18.206;2023-03-23T09:02:19;9.15;;;4.03;;
8683;SDS011;4379;59.744;18.206;2023-03-23T09:04:45;7.75;;;3.65;;
8683;SDS011;4379;59.744;18.206;2023-03-23T09:07:12;8.05;;;4.10;;
8683;SDS011;4379;59.744;18.206;2023-03-23T09:09:39;4.72;;;3.38;;
8683;SDS011;4379;59.744;18.206;2023-03-23T09:12:07;8.63;;;4.03;;
8683;SDS011;4379;59.744;18.206;2023-03-23T09:14:34;8.50;;;3.95;;
8683;SDS011;4379;59.744;18.206;2023-03-23T09:17:01;6.55;;;3.72;;
8683;SDS011;4379;59.744;18.206;2023-03-23T09:19:28;7.05;;;4.07;;
8683;SDS011;4379;59.744;18.206;2023-03-23T09:21:55;7.25;;;3.50;;
8683;SDS011;4379;59.744;18.206;2023-03-23T09:24:21;9.18;;;3.97;;
8683;SDS011;4379;59.744;18.206;2023-03-23T09:26:48;10.38;;;3.92;;
8683;SDS011;4379;59.744;18.206;2023-03-23T09:29:14;7.35;;;3.70;;
8683;SDS011;4379;59.744;18.206;2023-03-23T09:31:40;10.43;;;4.50;;
8683;SDS011;4379;59.744;18.206;2023-03-23T09:34:07;7.97;;;3.80;;
8683;SDS011;4379;59.744;18.206;2023-03-23T09:36:38;9.32;;;3.60;;
8683;SDS011;4379;59.744;18.206;2023-03-23T09:39:07;9.63;;;4.30;;
8683;SDS011;4379;59.744;18.206;2023-03-23T09:44:41;9.77;;;3.72;;
8683;SDS011;4379;59.744;18.206;2023-03-23T09:52:43;9.18;;;3.72;;
8683;SDS011;4379;59.744;18.206;2023-03-23T09:55:11;9.63;;;3.65;;
8683;SDS011;4379;59.744;18.206;2023-03-23T09:58:27;9.07;;;3.45;;
8683;SDS011;4379;59.744;18.206;2023-03-23T10:00:42;7.70;;;3.13;;
8683;SDS011;4379;59.744;18.206;2023-03-23T10:03:17;7.70;;;3.63;;
8683;SDS011;4379;59.744;18.206;2023-03-23T10:05:47;7.95;;;4.05;;
8683;SDS011;4379;59.744;18.206;2023-03-23T10:08:16;7.90;;;3.80;;
8683;SDS011;4379;59.744;18.206;2023-03-23T10:16:10;7.72;;;3.28;;
8683;SDS011;4379;59.744;18.206;2023-03-23T10:18:53;7.65;;;3.78;;
8683;SDS011;4379;59.744;18.206;2023-03-23T10:21:24;7.90;;;3.63;;
8683;SDS011;4379;59.744;18.206;2023-03-23T10:23:59;7.88;;;3.80;;
8683;SDS011;4379;59.744;18.206;2023-03-23T10:26:33;8.35;;;3.97;;
8683;SDS011;4379;59.744;18.206;2023-03-23T10:29:15;6.85;;;3.50;;
8683;SDS011;4379;59.744;18.206;2023-03-23T10:31:50;11.70;;;3.90;;
8683;SDS011;4379;59.744;18.206;2023-03-23T10:37:02;8.65;;;3.53;;
8683;SDS011;4379;59.744;18.206;2023-03-23T10:39:44;8.77;;;3.55;;
8683;SDS011;4379;59.744;18.206;2023-03-23T10:42:23;7.97;;;3.65;;
8683;SDS011;4379;59.744;18.206;2023-03-23T10:44:55;7.50;;;3.38;;
8683;SDS011;4379;59.744;18.206;2023-03-23T10:47:23;6.70;;;3.40;;
8683;SDS011;4379;59.744;18.206;2023-03-23T10:49:56;8.93;;;3.55;;
8683;SDS011;4379;59.744;18.206;2023-03-23T10:52:30;8.07;;;3.83;;
8683;SDS011;4379;59.744;18.206;2023-03-23T10:55:13;7.47;;;3.45;;
8683;SDS011;4379;59.744;18.206;2023-03-23T10:57:42;6.95;;;3.47;;
8683;SDS011;4379;59.744;18.206;2023-03-23T11:00:17;7.47;;;3.40;;
8683;SDS011;4379;59.744;18.206;2023-03-23T11:02:56;8.95;;;3.25;;
8683;SDS011;4379;59.744;18.206;2023-03-23T11:05:26;6.45;;;3.25;;
8683;SDS011;4379;59.744;18.206;2023-03-23T11:08:23;6.72;;;3.42;;
8683;SDS011;4379;59.744;18.206;2023-03-23T11:10:52;9.15;;;3.38;;
8683;SDS011;4379;59.744;18.206;2023-03-23T11:13:22;7.28;;;3.58;;
8683;SDS011;4379;59.744;18.206;2023-03-23T11:15:54;10.65;;;3.90;;
8683;SDS011;4379;59.744;18.206;2023-03-23T11:18:25;8.18;;;3.30;;
8683;SDS011;4379;59.744;18.206;2023-03-23T11:20:59;9.52;;;3.30;;
8683;SDS011;4379;59.744;18.206;2023-03-23T11:26:11;11.20;;;3.75;;
8683;SDS011;4379;59.744;18.206;2023-03-23T11:28:48;7.85;;;3.40;;
8683;SDS011;4379;59.744;18.206;2023-03-23T11:31:37;9.02;;;3.33;;
8683;SDS011;4379;59.744;18.206;2023-03-23T11:34:10;6.28;;;3.30;;
8683;SDS011;4379;59.744;18.206;2023-03-23T11:36:47;4.75;;;2.95;;
8683;SDS011;4379;59.744;18.206;2023-03-23T11:39:19;9.05;;;3.55;;
8683;SDS011;4379;59.744;18.206;2023-03-23T11:41:51;8.90;;;3.72;;
8683;SDS011;4379;59.744;18.206;2023-03-23T11:44:20;7.18;;;3.42;;
8683;SDS011;4379;59.744;18.206;2023-03-23T11:46:55;7.53;;;3.33;;
8683;SDS011;4379;59.744;18.206;2023-03-23T11:49:55;5.95;;;3.53;;
8683;SDS011;4379;59.744;18.206;2023-03-23T11:52:43;7.47;;;3.63;;
8683;SDS011;4379;59.744;18.206;2023-03-23T11:55:23;8.13;;;3.45;;
8683;SDS011;4379;59.744;18.206;2023-03-23T11:57:54;8.55;;;3.58;;
8683;SDS011;4379;59.744;18.206;2023-03-23T12:00:25;6.90;;;3.50;;
8683;SDS011;4379;59.744;18.206;2023-03-23T12:05:59;6.47;;;3.58;;
8683;SDS011;4379;59.744;18.206;2023-03-23T12:27:51;6.22;;;3.63;;
8683;SDS011;4379;59.744;18.206;2023-03-23T12:38:16;6.45;;;3.28;;
8683;SDS011;4379;59.744;18.206;2023-03-23T12:48:57;5.85;;;3.10;;
8683;SDS011;4379;59.744;18.206;2023-03-23T12:54:59;6.35;;;2.83;;
8683;SDS011;4379;59.744;18.206;2023-03-23T13:00:24;7.28;;;3.40;;
8683;SDS011;4379;59.744;18.206;2023-03-23T13:03:16;6.32;;;3.22;;
8683;SDS011;4379;59.744;18.206;2023-03-23T13:06:12;7.22;;;3.40;;
8683;SDS011;4379;59.744;18.206;2023-03-23T13:08:55;6.70;;;3.15;;
8683;SDS011;4379;59.744;18.206;2023-03-23T13:11:40;9.10;;;3.60;;
8683;SDS011;4379;59.744;18.206;2023-03-23T13:20:04;8.10;;;3.28;;
8683;SDS011;4379;59.744;18.206;2023-03-23T13:26:03;7.40;;;2.90;;
8683;SDS011;4379;59.744;18.206;2023-03-23T13:28:19;7.30;;;2.88;;
8683;SDS011;4379;59.744;18.206;2023-03-23T13:33:24;6.50;;;3.10;;
8683;SDS011;4379;59.744;18.206;2023-03-23T13:35:51;7.43;;;3.13;;
8683;SDS011;4379;59.744;18.206;2023-03-23T13:40:50;7.70;;;3.50;;
8683;SDS011;4379;59.744;18.206;2023-03-23T13:43:27;4.85;;;2.88;;
8683;SDS011;4379;59.744;18.206;2023-03-23T13:46:06;8.27;;;3.55;;
8683;SDS011;4379;59.744;18.206;2023-03-23T13:48:45;5.07;;;2.95;;
8683;SDS011;4379;59.744;18.206;2023-03-23T13:51:31;8.10;;;3.05;;
8683;SDS011;4379;59.744;18.206;2023-03-23T13:54:13;4.70;;;3.28;;
8683;SDS011;4379;59.744;18.206;2023-03-23T13:56:52;8.07;;;3.50;;
8683;SDS011;4379;59.744;18.206;2023-03-23T14:01:53;7.45;;;2.97;;
8683;SDS011;4379;59.744;18.206;2023-03-23T14:04:21;7.40;;;3.65;;
8683;SDS011;4379;59.744;18.206;2023-03-23T14:06:49;5.85;;;3.20;;
8683;SDS011;4379;59.744;18.206;2023-03-23T14:09:31;7.07;;;3.10;;
8683;SDS011;4379;59.744;18.206;2023-03-23T14:12:01;8.40;;;3.40;;
8683;SDS011;4379;59.744;18.206;2023-03-23T14:14:47;8.18;;;3.58;;
8683;SDS011;4379;59.744;18.206;2023-03-23T14:17:22;7.20;;;3.20;;
8683;SDS011;4379;59.744;18.206;2023-03-23T14:19:51;7.47;;;3.25;;
8683;SDS011;4379;59.744;18.206;2023-03-23T14:22:24;8.18;;;3.42;;
8683;SDS011;4379;59.744;18.206;2023-03-23T14:24:58;9.68;;;3.22;;
8683;SDS011;4379;59.744;18.206;2023-03-23T14:27:35;6.65;;;2.88;;
8683;SDS011;4379;59.744;18.206;2023-03-23T14:30:03;6.43;;;3.35;;
8683;SDS011;4379;59.744;18.206;2023-03-23T14:32:38;6.72;;;2.90;;
8683;SDS011;4379;59.744;18.206;2023-03-23T14:35:06;7.80;;;2.97;;
8683;SDS011;4379;59.744;18.206;2023-03-23T14:37:37;6.85;;;3.40;;
8683;SDS011;4379;59.744;18.206;2023-03-23T14:40:04;9.00;;;3.60;;
8683;SDS011;4379;59.744;18.206;2023-03-23T14:42:34;6.50;;;2.80;;
8683;SDS011;4379;59.744;18.206;2023-03-23T14:45:01;6.30;;;3.00;;
8683;SDS011;4379;59.744;18.206;2023-03-23T14:47:31;7.60;;;3.28;;
8683;SDS011;4379;59.744;18.206;2023-03-23T14:50:01;5.60;;;3.03;;
8683;SDS011;4379;59.744;18.206;2023-03-23T14:52:33;5.20;;;3.17;;
8683;SDS011;4379;59.744;18.206;2023-03-23T14:55:11;4.72;;;2.70;;
8683;SDS011;4379;59.744;18.206;2023-03-23T14:57:42;6.20;;;3.10;;
8683;SDS011;4379;59.744;18.206;2023-03-23T15:00:19;6.53;;;2.97;;
8683;SDS011;4379;59.744;18.206;2023-03-23T15:02:53;7.35;;;3.50;;
8683;SDS011;4379;59.744;18.206;2023-03-23T15:05:23;6.68;;;3.03;;
8683;SDS011;4379;59.744;18.206;2023-03-23T15:08:04;4.70;;;3.05;;
8683;SDS011;4379;59.744;18.206;2023-03-23T15:10:32;6.75;;;2.97;;
8683;SDS011;4379;59.744;18.206;2023-03-23T15:12:58;5.45;;;3.00;;
8683;SDS011;4379;59.744;18.206;2023-03-23T15:15:26;7.20;;;3.03;;
8683;SDS011;4379;59.744;18.206;2023-03-23T15:17:54;4.25;;;2.90;;
8683;SDS011;4379;59.744;18.206;2023-03-23T15:20:23;7.57;;;3.33;;
8683;SDS011;4379;59.744;18.206;2023-03-23T15:22:54;5.32;;;3.00;;
8683;SDS011;4379;59.744;18.206;2023-03-23T15:27:54;5.72;;;3.20;;
8683;SDS011;4379;59.744;18.206;2023-03-23T15:32:47;5.72;;;3.00;;
8683;SDS011;4379;59.744;18.206;2023-03-23T15:35:23;7.07;;;3.25;;
8683;SDS011;4379;59.744;18.206;2023-03-23T15:37:53;7.00;;;3.03;;
8683;SDS011;4379;59.744;18.206;2023-03-23T15:40:27;6.00;;;3.08;;
8683;SDS011;4379;59.744;18.206;2023-03-23T15:43:14;6.78;;;3.00;;
8683;SDS011;4379;59.744;18.206;2023-03-23T15:48:29;10.77;;;3.08;;
8683;SDS011;4379;59.744;18.206;2023-03-23T15:50:57;6.47;;;2.90;;
8683;SDS011;4379;59.744;18.206;2023-03-23T15:53:35;6.43;;;2.90;;
8683;SDS011;4379;59.744;18.206;2023-03-23T15:56:04;7.55;;;2.90;;
8683;SDS011;4379;59.744;18.206;2023-03-23T15:58:32;9.40;;;2.92;;
8683;SDS011;4379;59.744;18.206;2023-03-23T16:01:05;6.57;;;2.90;;
8683;SDS011;4379;59.744;18.206;2023-03-23T16:03:50;5.68;;;3.10;;
8683;SDS011;4379;59.744;18.206;2023-03-23T16:06:23;5.97;;;2.80;;
8683;SDS011;4379;59.744;18.206;2023-03-23T16:08:53;6.63;;;3.08;;
8683;SDS011;4379;59.744;18.206;2023-03-23T16:11:21;3.90;;;2.17;;
8683;SDS011;4379;59.744;18.206;2023-03-23T16:13:50;6.75;;;2.60;;
8683;SDS011;4379;59.744;18.206;2023-03-23T16:16:20;5.50;;;3.22;;
8683;SDS011;4379;59.744;18.206;2023-03-23T16:18:53;4.28;;;2.45;;
8683;SDS011;4379;59.744;18.206;2023-03-23T16:21:21;6.32;;;2.60;;
8683;SDS011;4379;59.744;18.206;2023-03-23T16:23:48;6.22;;;2.88;;
8683;SDS011;4379;59.744;18.206;2023-03-23T16:26:16;5.03;;;2.72;;
8683;SDS011;4379;59.744;18.206;2023-03-23T16:28:44;8.38;;;2.80;;
8683;SDS011;4379;59.744;18.206;2023-03-23T16:31:11;5.60;;;2.90;;
8683;SDS011;4379;59.744;18.206;2023-03-23T16:33:39;4.97;;;2.55;;
8683;SDS011;4379;59.744;18.206;2023-03-23T16:36:06;5.95;;;2.90;;
8683;SDS011;4379;59.744;18.206;2023-03-23T16:38:37;7.30;;;3.13;;
8683;SDS011;4379;59.744;18.206;2023-03-23T16:41:17;7.30;;;3.23;;
8683;SDS011;4379;59.744;18.206;2023-03-23T16:43:44;5.67;;;2.67;;
8683;SDS011;4379;59.744;18.206;2023-03-23T16:46:12;4.40;;;2.53;;
8683;SDS011;4379;59.744;18.206;2023-03-23T16:48:39;8.23;;;2.87;;
8683;SDS011;4379;59.744;18.206;2023-03-23T16:51:07;4.43;;;2.37;;
8683;SDS011;4379;59.744;18.206;2023-03-23T16:53:35;5.43;;;3.03;;
8683;SDS011;4379;59.744;18.206;2023-03-23T16:56:03;4.40;;;2.57;;
8683;SDS011;4379;59.744;18.206;2023-03-23T16:58:30;5.40;;;3.30;;
8683;SDS011;4379;59.744;18.206;2023-03-23T17:00:59;5.23;;;2.60;;
8683;SDS011;4379;59.744;18.206;2023-03-23T17:03:27;5.80;;;2.90;;
8683;SDS011;4379;59.744;18.206;2023-03-23T17:05:55;7.10;;;3.00;;